createdAt,value
2023-02-11T00:01:11.316Z,101550.91
2023-02-11T00:03:38.853Z,101555.84
2023-02-11T00:06:11.057Z,101550.72
2023-02-11T00:08:39.331Z,101554.00
2023-02-11T00:11:07.563Z,101551.41
2023-02-11T00:13:34.380Z,101541.13
2023-02-11T00:16:12.185Z,101540.22
2023-02-11T00:18:39.243Z,101550.19
2023-02-11T00:21:27.163Z,101556.81
2023-02-11T00:23:57.138Z,101550.69
2023-02-11T00:26:32.052Z,101550.63
2023-02-11T00:29:00.879Z,101550.44
2023-02-11T00:31:29.133Z,101547.78
2023-02-11T00:33:56.109Z,101541.72
2023-02-11T00:36:26.773Z,101532.38
2023-02-11T00:38:56.115Z,101539.78
2023-02-11T00:41:23.728Z,101530.34
2023-02-11T00:43:51.187Z,101535.34
2023-02-11T00:46:18.150Z,101527.56
2023-02-11T00:48:45.224Z,101529.13
2023-02-11T00:51:12.624Z,101518.91
2023-02-11T00:53:39.827Z,101515.41
2023-02-11T00:56:07.523Z,101518.69
2023-02-11T00:58:34.432Z,101514.34
2023-02-11T01:01:01.592Z,101512.63
2023-02-11T01:03:28.916Z,101504.03
2023-02-11T01:05:55.769Z,101508.25
2023-02-11T01:08:22.979Z,101519.91
2023-02-11T01:11:05.123Z,101527.38
2023-02-11T01:13:35.023Z,101515.50
2023-02-11T01:16:02.143Z,101530.63
2023-02-11T01:18:29.123Z,101528.06
2023-02-11T01:20:55.940Z,101528.81
2023-02-11T01:23:22.740Z,101524.56
2023-02-11T01:25:50.194Z,101532.88
2023-02-11T01:28:20.189Z,101529.44
2023-02-11T01:30:47.464Z,101536.97
2023-02-11T01:33:15.109Z,101536.13
2023-02-11T01:35:43.201Z,101535.19
2023-02-11T01:38:23.751Z,101543.47
2023-02-11T01:41:00.644Z,101547.56
2023-02-11T01:43:32.722Z,101543.28
2023-02-11T01:46:20.579Z,101547.41
2023-02-11T01:48:59.753Z,101549.00
2023-02-11T01:51:51.407Z,101543.00
2023-02-11T01:54:42.881Z,101554.66
2023-02-11T01:57:24.883Z,101553.72
2023-02-11T02:00:12.594Z,101561.25
2023-02-11T02:03:06.068Z,101557.00
2023-02-11T02:05:57.728Z,101554.47
2023-02-11T02:09:05.538Z,101559.53
2023-02-11T02:11:32.692Z,101568.00
2023-02-11T02:13:59.634Z,101583.25
2023-02-11T02:16:34.045Z,101591.00
2023-02-11T02:19:35.239Z,101586.91
2023-02-11T02:22:29.739Z,101578.47
2023-02-11T02:25:33.632Z,101570.09
2023-02-11T02:28:21.121Z,101566.69
2023-02-11T02:31:38.529Z,101555.91
2023-02-11T02:34:23.624Z,101558.44
2023-02-11T02:37:04.551Z,101563.56
2023-02-11T02:39:36.431Z,101561.16
2023-02-11T02:42:05.565Z,101558.91
2023-02-11T02:44:33.657Z,101553.16
2023-02-11T02:47:00.569Z,101560.81
2023-02-11T02:49:27.376Z,101549.13
2023-02-11T02:52:21.901Z,101543.31
2023-02-11T02:55:34.794Z,101554.25
2023-02-11T02:58:18.289Z,101547.38
2023-02-11T03:01:13.416Z,101539.81
2023-02-11T03:03:49.843Z,101539.75
2023-02-11T03:07:02.954Z,101535.50
2023-02-11T03:10:03.417Z,101538.69
2023-02-11T03:12:34.472Z,101524.28
2023-02-11T03:15:05.484Z,101513.34
2023-02-11T03:17:36.135Z,101514.91
2023-02-11T03:20:09.892Z,101519.94
2023-02-11T03:23:03.275Z,101513.13
2023-02-11T03:25:38.390Z,101511.34
2023-02-11T03:28:27.341Z,101510.50
2023-02-11T03:31:07.838Z,101505.28
2023-02-11T03:33:55.679Z,101507.81
2023-02-11T03:37:12.677Z,101512.84
2023-02-11T03:39:57.297Z,101511.88
2023-02-11T03:42:33.212Z,101521.19
2023-02-11T03:45:12.768Z,101513.59
2023-02-11T03:47:46.349Z,101506.03
2023-02-11T03:50:17.163Z,101500.91
2023-02-11T03:52:47.984Z,101500.97
2023-02-11T03:55:20.717Z,101495.91
2023-02-11T03:57:48.675Z,101488.25
2023-02-11T04:00:16.114Z,101487.38
2023-02-11T04:02:43.857Z,101478.09
2023-02-11T04:05:15.850Z,101499.25
2023-02-11T04:07:42.651Z,101491.66
2023-02-11T04:10:11.332Z,101499.31
2023-02-11T04:12:38.146Z,101497.59
2023-02-11T04:15:05.852Z,101497.66
2023-02-11T04:17:32.614Z,101506.19
2023-02-11T04:19:59.491Z,101502.09
2023-02-11T04:22:26.299Z,101497.13
2023-02-11T04:24:53.038Z,101507.28
2023-02-11T04:27:19.760Z,101497.16
2023-02-11T04:29:46.505Z,101504.78
2023-02-11T04:32:13.273Z,101493.13
2023-02-11T04:34:40.184Z,101489.00
2023-02-11T04:37:08.334Z,101481.56
2023-02-11T04:39:35.692Z,101474.03
2023-02-11T04:42:02.472Z,101485.09
2023-02-11T04:44:29.374Z,101485.16
2023-02-11T04:46:56.094Z,101486.13
2023-02-11T04:49:23.269Z,101471.78
2023-02-11T04:51:50.071Z,101487.88
2023-02-11T04:54:17.696Z,101483.63
2023-02-11T04:56:44.570Z,101483.69
2023-02-11T04:59:13.206Z,101486.19
2023-02-11T05:01:40.719Z,101486.19
2023-02-11T05:04:07.733Z,101488.78
2023-02-11T05:06:34.563Z,101485.41
2023-02-11T05:09:01.360Z,101489.63
2023-02-11T05:11:28.086Z,101487.94
2023-02-11T05:13:54.893Z,101486.28
2023-02-11T05:16:21.801Z,101487.97
2023-02-11T05:18:52.458Z,101482.88
2023-02-11T05:21:20.229Z,101476.16
2023-02-11T05:23:47.398Z,101460.94
2023-02-11T05:26:14.822Z,101460.09
2023-02-11T05:28:42.799Z,101463.50
2023-02-11T05:31:11.093Z,101459.25
2023-02-11T05:33:38.196Z,101471.78
2023-02-11T05:36:10.006Z,101466.75
2023-02-11T05:38:38.182Z,101465.91
2023-02-11T05:41:06.628Z,101474.31
2023-02-11T05:43:35.394Z,101461.69
2023-02-11T05:46:03.935Z,101466.84
2023-02-11T05:48:31.932Z,101468.59
2023-02-11T05:50:58.972Z,101459.38
2023-02-11T05:53:25.983Z,101465.28
2023-02-11T05:55:53.179Z,101464.44
2023-02-11T05:58:19.940Z,101476.22
2023-02-11T06:00:46.729Z,101462.78
2023-02-11T06:03:13.495Z,101472.09
2023-02-11T06:05:40.336Z,101467.13
2023-02-11T06:08:07.081Z,101464.69
2023-02-11T06:10:33.836Z,101467.22
2023-02-11T06:13:02.191Z,101463.81
2023-02-11T06:15:29.219Z,101454.56
2023-02-11T06:17:56.390Z,101455.38
2023-02-11T06:20:23.158Z,101451.13
2023-02-11T06:22:49.896Z,101447.78
2023-02-11T06:25:16.875Z,101453.66
2023-02-11T06:27:43.636Z,101451.97
2023-02-11T06:30:11.523Z,101463.00
2023-02-11T06:32:46.140Z,101463.81
2023-02-11T06:35:14.840Z,101456.22
2023-02-11T06:37:42.699Z,101467.13
2023-02-11T06:40:11.498Z,101472.31
2023-02-11T06:42:39.137Z,101470.69
2023-02-11T06:45:09.038Z,101479.97
2023-02-11T06:47:35.941Z,101487.66
2023-02-11T06:50:03.195Z,101482.59
2023-02-11T06:52:30.003Z,101481.00
2023-02-11T06:54:56.803Z,101483.53
2023-02-11T06:57:23.531Z,101492.03
2023-02-11T06:59:50.421Z,101492.88
2023-02-11T07:02:20.375Z,101494.59
2023-02-11T07:04:47.762Z,101500.50
2023-02-11T07:07:14.506Z,101492.97
2023-02-11T07:09:41.574Z,101486.25
2023-02-11T07:12:10.614Z,101494.72
2023-02-11T07:14:37.677Z,101496.47
2023-02-11T07:17:04.831Z,101500.66
2023-02-11T07:19:31.844Z,101496.38
2023-02-11T07:21:58.618Z,101501.50
2023-02-11T07:24:25.723Z,101501.50
2023-02-11T07:26:54.095Z,101515.84
2023-02-11T07:29:21.143Z,101517.53
2023-02-11T07:31:48.099Z,101525.13
2023-02-11T07:34:14.850Z,101522.59
2023-02-11T07:36:43.638Z,101520.13
2023-02-11T07:39:10.499Z,101518.41
2023-02-11T07:41:38.296Z,101516.69
2023-02-11T07:44:05.647Z,101533.63
2023-02-11T07:46:34.534Z,101523.50
2023-02-11T07:49:01.690Z,101528.63
2023-02-11T07:51:31.278Z,101525.28
2023-02-11T07:53:59.998Z,101530.34
2023-02-11T07:56:28.660Z,101532.06
2023-02-11T07:58:56.857Z,101528.75
2023-02-11T08:01:28.294Z,101527.91
2023-02-11T08:04:00.387Z,101543.16
2023-02-11T08:06:31.824Z,101538.94
2023-02-11T08:09:03.808Z,101535.59
2023-02-11T08:11:30.614Z,101539.81
2023-02-11T08:13:57.521Z,101537.38
2023-02-11T08:16:34.344Z,101541.69
2023-02-11T08:19:14.674Z,101542.56
2023-02-11T08:21:42.185Z,101545.91
2023-02-11T08:24:09.428Z,101545.97
2023-02-11T08:26:36.699Z,101548.50
2023-02-11T08:29:09.955Z,101549.34
2023-02-11T08:31:41.356Z,101550.19
2023-02-11T08:34:11.331Z,101548.56
2023-02-11T08:36:39.970Z,101548.56
2023-02-11T08:39:19.581Z,101558.66
2023-02-11T08:41:50.187Z,101562.00
2023-02-11T08:44:19.137Z,101565.38
2023-02-11T08:46:46.998Z,101567.97
2023-02-11T08:49:14.839Z,101568.88
2023-02-11T08:51:42.456Z,101569.75
2023-02-11T08:54:09.918Z,101573.22
2023-02-11T08:56:38.402Z,101571.63
2023-02-11T08:59:06.399Z,101576.75
2023-02-11T09:01:34.845Z,101574.41
2023-02-11T09:04:01.989Z,101578.69
2023-02-11T09:06:29.617Z,101578.78
2023-02-11T09:08:58.317Z,101574.66
2023-02-11T09:11:35.255Z,101577.25
2023-02-11T09:14:03.990Z,101585.78
2023-02-11T09:16:35.843Z,101581.56
2023-02-11T09:19:05.006Z,101584.97
2023-02-11T09:21:31.852Z,101588.44
2023-02-11T09:23:58.684Z,101586.00
2023-02-11T09:26:29.951Z,101590.41
2023-02-11T09:28:57.603Z,101595.56
2023-02-11T09:31:27.731Z,101587.19
2023-02-11T09:34:00.396Z,101594.94
2023-02-11T09:36:31.879Z,101595.94
2023-02-11T09:39:01.972Z,101598.56
2023-02-11T09:42:09.612Z,101601.22
2023-02-11T09:44:38.825Z,101605.59
2023-02-11T09:47:23.741Z,101612.50
2023-02-11T09:49:57.116Z,101617.81
2023-02-11T09:52:53.388Z,101615.47
2023-02-11T09:55:59.942Z,101603.03
2023-02-11T09:58:38.559Z,101618.34
2023-02-11T10:01:29.414Z,101616.81
2023-02-11T10:04:58.197Z,101612.75
2023-02-11T10:07:39.002Z,101615.16
2023-02-11T10:10:28.123Z,101618.66
2023-02-11T10:13:23.076Z,101619.56
2023-02-11T10:16:22.538Z,101625.50
2023-02-11T10:19:08.577Z,101637.41
2023-02-11T10:22:09.739Z,101640.00
2023-02-11T10:24:38.640Z,101632.56
2023-02-11T10:27:24.384Z,101631.00
2023-02-11T10:30:02.694Z,101635.31
2023-02-11T10:32:41.893Z,101642.19
2023-02-11T10:35:21.090Z,101646.47
2023-02-11T10:37:49.259Z,101647.44
2023-02-11T10:40:21.022Z,101651.78
2023-02-11T10:42:59.097Z,101646.75
2023-02-11T10:45:35.999Z,101658.59
2023-02-11T10:48:39.860Z,101652.69
2023-02-11T10:51:31.490Z,101651.00
2023-02-11T10:54:04.037Z,101664.50
2023-02-11T10:56:42.214Z,101653.47
2023-02-11T10:59:30.418Z,101656.88
2023-02-11T11:02:00.928Z,101657.69
2023-02-11T11:04:30.568Z,101653.44
2023-02-11T11:07:18.052Z,101648.34
2023-02-11T11:09:55.726Z,101653.34
2023-02-11T11:12:56.818Z,101657.63
2023-02-11T11:15:28.453Z,101660.97
2023-02-11T11:18:22.465Z,101663.53
2023-02-11T11:21:02.308Z,101664.31
2023-02-11T11:23:36.439Z,101658.38
2023-02-11T11:26:13.041Z,101656.69
2023-02-11T11:28:52.151Z,101638.19
2023-02-11T11:31:25.875Z,101639.88
2023-02-11T11:33:57.513Z,101639.09
2023-02-11T11:36:35.198Z,101642.50
2023-02-11T11:39:18.749Z,101645.09
2023-02-11T11:41:58.585Z,101648.53
2023-02-11T11:44:28.894Z,101645.19
2023-02-11T11:47:13.495Z,101649.56
2023-02-11T11:50:13.820Z,101648.03
2023-02-11T11:52:50.489Z,101646.44
2023-02-11T11:55:36.082Z,101649.97
2023-02-11T11:58:04.213Z,101639.94
2023-02-11T12:01:09.522Z,101634.19
2023-02-11T12:04:06.954Z,101635.03
2023-02-11T12:07:10.864Z,101637.53
2023-02-11T12:09:58.504Z,101636.72
2023-02-11T12:12:48.667Z,101635.09
2023-02-11T12:16:04.804Z,101640.31
2023-02-11T12:19:24.490Z,101631.03
2023-02-11T12:22:19.001Z,101629.38
2023-02-11T12:24:57.582Z,101638.72
2023-02-11T12:28:10.787Z,101638.81
2023-02-11T12:31:12.913Z,101639.75
2023-02-11T12:34:27.093Z,101645.72
2023-02-11T12:37:11.632Z,101640.78
2023-02-11T12:40:08.853Z,101643.50
2023-02-11T12:43:15.282Z,101651.34
2023-02-11T12:45:59.153Z,101637.94
2023-02-11T12:49:07.400Z,101638.97
2023-02-11T12:52:16.533Z,101642.50
2023-02-11T12:55:09.488Z,101643.41
2023-02-11T12:57:41.718Z,101643.50
2023-02-11T13:00:18.429Z,101641.94
2023-02-11T13:03:01.222Z,101642.06
2023-02-11T13:05:43.159Z,101637.84
2023-02-11T13:08:40.974Z,101647.19
2023-02-11T13:11:16.096Z,101642.16
2023-02-11T13:13:45.589Z,101642.16
2023-02-11T13:16:43.441Z,101639.56
2023-02-11T13:19:23.859Z,101636.97
2023-02-11T13:22:18.336Z,101639.53
2023-02-11T13:24:59.757Z,101632.72
2023-02-11T13:28:04.774Z,101631.03
2023-02-11T13:30:35.073Z,101618.28
2023-02-11T13:33:04.238Z,101625.94
2023-02-11T13:35:38.347Z,101625.94
2023-02-11T13:38:24.444Z,101628.47
2023-02-11T13:41:20.959Z,101625.06
2023-02-11T13:44:22.510Z,101615.66
2023-02-11T13:47:02.085Z,101621.47
2023-02-11T13:49:40.594Z,101615.41
2023-02-11T13:52:31.414Z,101616.19
2023-02-11T13:55:22.700Z,101620.41
2023-02-11T13:58:07.501Z,101619.47
2023-02-11T14:00:34.167Z,101616.94
2023-02-11T14:03:31.652Z,101615.28
2023-02-11T14:06:29.175Z,101620.34
2023-02-11T14:09:11.387Z,101622.78
2023-02-11T14:11:52.073Z,101631.19
2023-02-11T14:14:33.766Z,101637.19
2023-02-11T14:17:00.444Z,101629.56
2023-02-11T14:19:46.247Z,101624.53
2023-02-11T14:22:27.614Z,101616.03
2023-02-11T14:25:01.004Z,101618.56
2023-02-11T14:28:15.179Z,101618.50
2023-02-11T14:31:12.137Z,101614.97
2023-02-11T14:34:06.981Z,101617.50
2023-02-11T14:37:01.283Z,101618.34
2023-02-11T14:39:52.609Z,101620.03
2023-02-11T14:42:26.550Z,101621.81
2023-02-11T14:44:58.162Z,101627.00
2023-02-11T14:47:40.167Z,101625.44
2023-02-11T14:50:16.811Z,101628.06
2023-02-11T14:52:44.437Z,101628.97
2023-02-11T14:55:29.316Z,101629.06
2023-02-11T14:58:26.423Z,101635.84
2023-02-11T15:01:02.056Z,101635.91
2023-02-11T15:03:42.159Z,101639.34
2023-02-11T15:06:21.277Z,101631.78
2023-02-11T15:09:27.956Z,101631.84
2023-02-11T15:11:57.580Z,101638.66
2023-02-11T15:14:34.780Z,101641.28
2023-02-11T15:17:06.173Z,101643.84
2023-02-11T15:19:35.857Z,101638.00
2023-02-11T15:22:21.985Z,101645.69
2023-02-11T15:25:10.525Z,101639.78
2023-02-11T15:27:52.790Z,101635.50
2023-02-11T15:30:22.227Z,101643.97
2023-02-11T15:32:59.843Z,101640.56
2023-02-11T15:35:30.844Z,101634.69
2023-02-11T15:37:59.836Z,101645.66
2023-02-11T15:40:34.739Z,101641.34
2023-02-11T15:43:06.007Z,101638.66
2023-02-11T15:45:42.061Z,101640.34
2023-02-11T15:48:37.006Z,101629.22
2023-02-11T15:51:20.540Z,101630.84
2023-02-11T15:53:53.095Z,101634.16
2023-02-11T15:56:30.546Z,101632.41
2023-02-11T15:59:00.720Z,101634.91
2023-02-11T16:01:34.282Z,101639.13
2023-02-11T16:04:03.067Z,101639.13
2023-02-11T16:06:40.233Z,101642.50
2023-02-11T16:09:12.306Z,101651.84
2023-02-11T16:11:47.875Z,101636.59
2023-02-11T16:14:39.211Z,101634.06
2023-02-11T16:17:19.467Z,101649.28
2023-02-11T16:19:50.631Z,101639.13
2023-02-11T16:22:25.372Z,101646.75
2023-02-11T16:24:57.751Z,101645.94
2023-02-11T16:27:52.798Z,101646.75
2023-02-11T16:30:38.804Z,101649.25
2023-02-11T16:33:05.615Z,101661.03
2023-02-11T16:35:32.778Z,101664.44
2023-02-11T16:37:59.494Z,101670.41
2023-02-11T16:40:26.297Z,101665.34
2023-02-11T16:42:53.430Z,101665.34
2023-02-11T16:45:20.575Z,101666.97
2023-02-11T16:47:47.613Z,101666.16
2023-02-11T16:50:25.242Z,101674.56
2023-02-11T16:52:52.588Z,101676.25
2023-02-11T16:55:21.907Z,101679.59
2023-02-11T16:57:49.155Z,101685.50
2023-02-11T17:00:17.209Z,101683.78
2023-02-11T17:02:44.281Z,101693.03
2023-02-11T17:05:24.840Z,101689.59
2023-02-11T17:07:52.739Z,101693.78
2023-02-11T17:10:23.334Z,101691.09
2023-02-11T17:12:51.242Z,101697.91
2023-02-11T17:15:17.989Z,101708.06
2023-02-11T17:17:45.777Z,101699.56
2023-02-11T17:20:14.349Z,101708.81
2023-02-11T17:22:41.627Z,101705.38
2023-02-11T17:25:08.885Z,101704.47
2023-02-11T17:27:35.618Z,101707.75
2023-02-11T17:30:02.887Z,101721.25
2023-02-11T17:32:29.640Z,101727.13
2023-02-11T17:34:56.395Z,101727.88
2023-02-11T17:37:23.126Z,101729.53
2023-02-11T17:39:50.910Z,101728.63
2023-02-11T17:42:19.184Z,101732.84
2023-02-11T17:44:46.407Z,101731.97
2023-02-11T17:47:13.619Z,101730.19
2023-02-11T17:49:41.041Z,101740.34
2023-02-11T17:52:08.139Z,101739.47
2023-02-11T17:54:34.996Z,101740.25
2023-02-11T17:57:01.777Z,101739.34
2023-02-11T17:59:31.689Z,101741.06
2023-02-11T18:01:58.433Z,101736.81
2023-02-11T18:04:25.274Z,101743.59
2023-02-11T18:06:53.495Z,101742.75
2023-02-11T18:09:20.564Z,101747.75
2023-02-11T18:11:48.433Z,101752.69
2023-02-11T18:14:15.176Z,101755.28
2023-02-11T18:16:44.743Z,101755.25
2023-02-11T18:19:12.987Z,101763.69
2023-02-11T18:21:39.901Z,101764.47
2023-02-11T18:24:07.321Z,101767.88
2023-02-11T18:26:35.243Z,101757.75
2023-02-11T18:29:03.679Z,101770.34
2023-02-11T18:31:31.626Z,101768.69
2023-02-11T18:33:58.356Z,101772.88
2023-02-11T18:36:25.081Z,101778.88
2023-02-11T18:38:53.596Z,101782.25
2023-02-11T18:41:21.310Z,101782.25
2023-02-11T18:43:48.972Z,101782.25
2023-02-11T18:46:16.644Z,101775.53
2023-02-11T18:48:44.958Z,101785.69
2023-02-11T18:51:16.095Z,101783.94
2023-02-11T18:53:43.230Z,101774.56
2023-02-11T18:56:20.900Z,101783.00
2023-02-11T18:58:48.745Z,101773.63
2023-02-11T19:01:27.471Z,101782.06
2023-02-11T19:03:57.422Z,101777.81
2023-02-11T19:06:33.012Z,101775.31
2023-02-11T19:09:05.656Z,101778.66
2023-02-11T19:11:52.207Z,101772.72
2023-02-11T19:14:31.507Z,101770.97
2023-02-11T19:17:04.164Z,101771.81
2023-02-11T19:19:36.086Z,101775.22
2023-02-11T19:22:10.676Z,101772.69
2023-02-11T19:24:57.863Z,101767.47
2023-02-11T19:27:41.565Z,101763.09
2023-02-11T19:30:12.386Z,101777.53
2023-02-11T19:32:57.177Z,101779.97
2023-02-11T19:35:38.344Z,101789.22
2023-02-11T19:38:13.049Z,101787.44
2023-02-11T19:40:55.661Z,101796.81
2023-02-11T19:43:30.658Z,101794.16
2023-02-11T19:46:08.614Z,101795.91
2023-02-11T19:48:44.500Z,101795.88
2023-02-11T19:51:33.417Z,101795.88
2023-02-11T19:54:02.615Z,101806.94
2023-02-11T19:56:37.986Z,101796.66
2023-02-11T19:59:08.939Z,101795.81
2023-02-11T20:01:36.837Z,101795.88
2023-02-11T20:04:03.892Z,101790.72
2023-02-11T20:06:33.360Z,101800.94
2023-02-11T20:09:12.844Z,101796.78
2023-02-11T20:11:41.907Z,101800.94
2023-02-11T20:14:11.216Z,101804.28
2023-02-11T20:16:48.061Z,101797.47
2023-02-11T20:19:19.167Z,101799.13
2023-02-11T20:21:48.933Z,101794.91
2023-02-11T20:24:17.766Z,101796.59
2023-02-11T20:26:46.773Z,101805.09
2023-02-11T20:29:17.727Z,101805.84
2023-02-11T20:31:45.092Z,101810.06
2023-02-11T20:34:13.256Z,101807.53
2023-02-11T20:36:40.864Z,101807.59
2023-02-11T20:39:08.618Z,101810.13
2023-02-11T20:41:39.690Z,101810.16
2023-02-11T20:44:10.426Z,101805.97
2023-02-11T20:46:41.273Z,101805.16
2023-02-11T20:49:11.925Z,101805.16
2023-02-11T20:51:39.094Z,101817.88
2023-02-11T20:54:07.066Z,101822.16
2023-02-11T20:56:36.844Z,101824.69
2023-02-11T20:59:05.761Z,101836.53
2023-02-11T21:01:40.611Z,101829.75
2023-02-11T21:04:17.276Z,101831.41
2023-02-11T21:06:48.114Z,101831.38
2023-02-11T21:09:21.960Z,101831.38
2023-02-11T21:11:53.704Z,101837.25
2023-02-11T21:14:22.325Z,101838.94
2023-02-11T21:16:50.068Z,101840.66
2023-02-11T21:19:17.305Z,101845.78
2023-02-11T21:21:44.233Z,101839.00
2023-02-11T21:24:12.178Z,101842.44
2023-02-11T21:26:39.172Z,101844.13
2023-02-11T21:29:08.187Z,101844.97
2023-02-11T21:31:36.769Z,101848.38
2023-02-11T21:34:04.936Z,101845.84
2023-02-11T21:36:31.949Z,101840.78
2023-02-11T21:39:00.073Z,101845.91
2023-02-11T21:41:27.279Z,101860.25
2023-02-11T21:43:54.188Z,101849.31
2023-02-11T21:46:22.418Z,101856.00
2023-02-11T21:48:49.831Z,101855.16
2023-02-11T21:51:20.967Z,101855.16
2023-02-11T21:53:48.124Z,101853.38
2023-02-11T21:56:17.985Z,101861.00
2023-02-11T21:58:46.406Z,101852.56
2023-02-11T22:01:20.890Z,101849.16
2023-02-11T22:03:47.907Z,101850.03
2023-02-11T22:06:21.984Z,101852.56
2023-02-11T22:08:50.026Z,101852.50
2023-02-11T22:11:16.994Z,101850.84
2023-02-11T22:13:44.425Z,101844.03
2023-02-11T22:16:16.892Z,101846.53
2023-02-11T22:18:46.908Z,101843.13
2023-02-11T22:21:20.685Z,101841.34
2023-02-11T22:23:47.768Z,101849.84
2023-02-11T22:26:20.822Z,101853.22
2023-02-11T22:28:47.939Z,101857.41
2023-02-11T22:31:25.317Z,101849.78
2023-02-11T22:33:52.129Z,101856.50
2023-02-11T22:36:26.246Z,101853.19
2023-02-11T22:38:54.393Z,101856.50
2023-02-11T22:41:23.053Z,101858.25
2023-02-11T22:43:49.868Z,101852.31
2023-02-11T22:46:19.073Z,101850.66
2023-02-11T22:48:47.195Z,101849.84
2023-02-11T22:51:21.944Z,101851.56
2023-02-11T22:53:57.464Z,101861.63
2023-02-11T22:56:24.911Z,101853.19
2023-02-11T22:58:53.580Z,101865.84
2023-02-11T23:01:20.684Z,101862.47
2023-02-11T23:03:47.933Z,101865.91
2023-02-11T23:06:14.909Z,101860.78
2023-02-11T23:08:45.310Z,101866.69
2023-02-11T23:11:19.200Z,101872.63
2023-02-11T23:13:48.792Z,101871.72
2023-02-11T23:16:22.976Z,101867.50
2023-02-11T23:18:51.135Z,101869.09
2023-02-11T23:21:26.048Z,101869.09
2023-02-11T23:24:00.353Z,101864.88
2023-02-11T23:26:27.324Z,101877.56
2023-02-11T23:28:54.266Z,101875.88
2023-02-11T23:31:28.385Z,101883.53
2023-02-11T23:33:55.853Z,101886.00
2023-02-11T23:36:23.591Z,101875.00
2023-02-11T23:38:50.889Z,101883.47
2023-02-11T23:41:18.856Z,101876.66
2023-02-11T23:43:51.909Z,101877.56
2023-02-11T23:46:21.655Z,101880.19
2023-02-11T23:48:49.513Z,101886.06
2023-02-11T23:51:16.697Z,101880.19
2023-02-11T23:53:45.814Z,101875.09
2023-02-11T23:56:22.777Z,101890.31
2023-02-11T23:58:51.578Z,101893.66
